createdAt,value
2023-03-29T00:02:48.588Z,4.67
2023-03-29T00:07:54.357Z,4.64
2023-03-29T00:12:57.997Z,4.60
2023-03-29T00:18:01.356Z,4.59
2023-03-29T00:23:05.928Z,4.64
2023-03-29T00:28:09.102Z,4.63
2023-03-29T00:33:12.584Z,4.64
2023-03-29T00:38:17.879Z,4.48
2023-03-29T00:43:21.236Z,4.36
2023-03-29T00:48:29.987Z,4.03
2023-03-29T00:53:37.480Z,3.89
2023-03-29T00:58:49.151Z,3.76
2023-03-29T01:03:57.459Z,3.77
2023-03-29T01:09:07.954Z,3.68
2023-03-29T01:14:16.130Z,3.64
2023-03-29T01:19:22.365Z,3.59
2023-03-29T01:24:41.941Z,3.53
2023-03-29T01:29:51.651Z,3.59
2023-03-29T01:35:01.070Z,3.58
2023-03-29T01:40:06.067Z,3.46
2023-03-29T01:45:21.017Z,3.44
2023-03-29T01:50:37.936Z,3.42
2023-03-29T01:55:46.117Z,3.25
2023-03-29T02:00:54.379Z,3.07
2023-03-29T02:05:59.249Z,3.12
2023-03-29T02:11:04.659Z,2.89
2023-03-29T02:16:13.152Z,2.92
2023-03-29T02:21:25.178Z,3.09
2023-03-29T02:26:29.262Z,3.08
2023-03-29T02:31:39.123Z,2.80
2023-03-29T02:36:47.845Z,2.74
2023-03-29T02:41:52.711Z,3.05
2023-03-29T02:47:01.235Z,3.02
2023-03-29T02:52:10.415Z,3.26
2023-03-29T02:57:13.724Z,3.28
2023-03-29T03:02:18.612Z,3.24
2023-03-29T03:07:22.040Z,3.33
2023-03-29T03:12:25.671Z,3.23
2023-03-29T03:17:33.231Z,3.22
2023-03-29T03:22:36.781Z,3.21
2023-03-29T03:27:41.406Z,3.28
2023-03-29T03:32:46.651Z,3.37
2023-03-29T03:38:10.893Z,3.24
2023-03-29T03:43:14.450Z,3.25
2023-03-29T03:48:19.608Z,3.33
2023-03-29T03:53:30.247Z,3.40
2023-03-29T03:58:48.393Z,3.53
2023-03-29T04:03:55.275Z,3.47
2023-03-29T04:09:00.263Z,3.49
2023-03-29T04:14:16.861Z,3.51
2023-03-29T04:19:57.585Z,3.64
2023-03-29T04:25:03.098Z,3.45
2023-03-29T04:30:25.205Z,3.51
2023-03-29T04:35:53.348Z,3.66
2023-03-29T04:40:58.360Z,3.78
2023-03-29T04:46:10.984Z,3.80
2023-03-29T04:51:51.219Z,3.96
2023-03-29T04:56:58.434Z,3.95
2023-03-29T05:02:10.978Z,3.91
2023-03-29T05:07:20.353Z,3.72
2023-03-29T05:12:23.919Z,3.55
2023-03-29T05:17:31.798Z,3.66
2023-03-29T05:22:43.582Z,3.86
2023-03-29T05:27:51.371Z,3.77
2023-03-29T05:32:55.439Z,3.76
2023-03-29T05:38:04.327Z,3.78
2023-03-29T05:43:07.847Z,4.05
2023-03-29T05:48:11.201Z,3.98
2023-03-29T05:53:20.815Z,4.12
2023-03-29T05:58:26.586Z,4.32
2023-03-29T06:03:30.318Z,4.42
2023-03-29T06:08:37.679Z,4.33
2023-03-29T06:13:48.684Z,4.39
2023-03-29T06:18:52.054Z,4.63
2023-03-29T06:23:56.906Z,4.55
2023-03-29T06:29:01.633Z,4.85
2023-03-29T06:34:05.327Z,4.93
2023-03-29T06:39:30.075Z,5.23
2023-03-29T06:44:57.161Z,5.26
2023-03-29T06:50:00.537Z,5.31
2023-03-29T06:55:11.976Z,5.33
2023-03-29T07:00:28.998Z,5.49
2023-03-29T07:05:42.874Z,5.46
2023-03-29T07:10:54.092Z,5.75
2023-03-29T07:15:57.469Z,5.83
2023-03-29T07:21:23.044Z,6.10
2023-03-29T07:26:29.573Z,6.02
2023-03-29T07:31:35.848Z,6.01
2023-03-29T07:36:59.316Z,6.19
2023-03-29T07:42:04.280Z,6.62
2023-03-29T07:47:07.636Z,6.87
2023-03-29T07:52:12.895Z,6.88
2023-03-29T07:57:17.845Z,7.33
2023-03-29T08:02:29.134Z,7.77
2023-03-29T08:07:38.244Z,7.85
2023-03-29T08:12:54.527Z,8.02
2023-03-29T08:18:05.566Z,8.34
2023-03-29T08:23:09.101Z,8.46
2023-03-29T08:28:29.929Z,9.73
2023-03-29T08:33:33.026Z,10.03
2023-03-29T08:38:55.381Z,10.81
2023-03-29T08:44:10.845Z,9.92
2023-03-29T08:49:33.038Z,9.39
2023-03-29T08:54:44.646Z,9.19
2023-03-29T09:00:18.971Z,9.94
2023-03-29T09:05:28.064Z,10.18
2023-03-29T09:10:45.509Z,10.70
2023-03-29T09:15:56.111Z,10.93
2023-03-29T09:21:17.773Z,11.09
2023-03-29T09:26:28.413Z,11.88
2023-03-29T09:31:51.224Z,11.77
2023-03-29T09:36:56.616Z,12.44
2023-03-29T09:42:04.380Z,12.47
2023-03-29T09:47:19.222Z,12.08
2023-03-29T09:52:23.810Z,12.02
2023-03-29T09:57:38.556Z,11.99
2023-03-29T10:02:52.781Z,11.89
2023-03-29T10:08:02.332Z,11.96
2023-03-29T10:13:08.672Z,11.39
2023-03-29T10:18:15.155Z,11.27
2023-03-29T10:23:19.861Z,11.57
2023-03-29T10:28:24.685Z,11.17
2023-03-29T10:33:34.199Z,11.38
2023-03-29T10:38:39.369Z,11.31
2023-03-29T10:43:45.585Z,11.19
2023-03-29T10:48:52.965Z,11.43
2023-03-29T10:53:58.517Z,11.64
2023-03-29T10:59:18.582Z,11.76
2023-03-29T11:04:34.639Z,12.00
2023-03-29T11:09:47.894Z,12.24
2023-03-29T11:15:04.646Z,12.57
2023-03-29T11:20:22.530Z,12.88
2023-03-29T11:25:37.305Z,12.92
2023-03-29T11:30:45.335Z,12.99
2023-03-29T11:35:59.197Z,12.44
2023-03-29T11:41:09.384Z,12.46
2023-03-29T11:46:18.561Z,12.34
2023-03-29T11:51:27.004Z,12.46
2023-03-29T11:56:36.279Z,12.20
2023-03-29T12:01:46.469Z,12.14
2023-03-29T12:06:58.923Z,12.65
2023-03-29T12:12:10.135Z,13.38
2023-03-29T12:17:18.189Z,13.30
2023-03-29T12:22:23.407Z,13.40
2023-03-29T12:27:31.097Z,13.32
2023-03-29T12:32:48.975Z,13.00
2023-03-29T12:38:20.395Z,13.44
2023-03-29T12:43:43.645Z,13.88
2023-03-29T12:49:12.491Z,13.83
2023-03-29T12:54:19.209Z,13.82
2023-03-29T12:59:27.760Z,13.82
2023-03-29T13:04:49.336Z,13.48
2023-03-29T13:09:56.190Z,13.25
2023-03-29T13:15:02.544Z,12.53
2023-03-29T13:20:33.357Z,12.71
2023-03-29T13:25:53.686Z,13.01
2023-03-29T13:31:01.131Z,12.68
2023-03-29T13:36:09.755Z,12.58
2023-03-29T13:41:29.717Z,12.55
2023-03-29T13:46:41.956Z,12.60
2023-03-29T13:52:03.691Z,12.86
2023-03-29T13:57:16.563Z,13.18
2023-03-29T14:02:28.917Z,13.16
2023-03-29T14:07:35.081Z,12.99
2023-03-29T14:12:42.142Z,13.16
2023-03-29T14:17:46.131Z,13.21
2023-03-29T14:22:49.393Z,12.94
2023-03-29T14:27:53.962Z,13.41
2023-03-29T14:32:58.619Z,13.23
2023-03-29T14:38:03.633Z,13.75
2023-03-29T14:43:11.302Z,14.43
2023-03-29T14:48:15.894Z,14.11
2023-03-29T14:53:21.314Z,13.63
2023-03-29T14:58:30.630Z,13.88
2023-03-29T15:03:45.519Z,13.60
2023-03-29T15:09:02.036Z,13.99
2023-03-29T15:14:15.543Z,14.07
2023-03-29T15:19:21.452Z,13.94
2023-03-29T15:24:29.875Z,13.64
2023-03-29T15:29:42.137Z,13.75
2023-03-29T15:34:45.529Z,13.40
2023-03-29T15:39:49.147Z,13.66
2023-03-29T15:44:56.930Z,13.40
2023-03-29T15:50:00.464Z,13.55
2023-03-29T15:55:03.784Z,13.60
2023-03-29T16:00:15.035Z,13.49
2023-03-29T16:05:19.071Z,13.33
2023-03-29T16:10:22.942Z,13.19
2023-03-29T16:15:28.063Z,13.09
2023-03-29T16:20:31.310Z,13.18
2023-03-29T16:25:34.698Z,13.03
2023-03-29T16:30:39.942Z,13.02
2023-03-29T16:35:43.350Z,12.93
2023-03-29T16:40:46.841Z,12.66
2023-03-29T16:45:51.772Z,12.82
2023-03-29T16:50:55.149Z,12.69
2023-03-29T16:55:58.868Z,12.46
2023-03-29T17:01:11.010Z,12.52
2023-03-29T17:06:14.404Z,12.38
2023-03-29T17:11:17.724Z,12.24
2023-03-29T17:16:22.710Z,12.14
2023-03-29T17:21:26.484Z,12.02
2023-03-29T17:26:29.842Z,11.85
2023-03-29T17:31:36.832Z,11.94
2023-03-29T17:36:41.343Z,11.67
2023-03-29T17:41:44.922Z,11.63
2023-03-29T17:46:49.655Z,11.48
2023-03-29T17:51:53.110Z,11.53
2023-03-29T17:56:56.273Z,11.45
2023-03-29T18:02:02.715Z,11.23
2023-03-29T18:07:06.078Z,10.95
2023-03-29T18:12:09.727Z,10.82
2023-03-29T18:17:14.800Z,10.68
2023-03-29T18:22:18.802Z,10.57
2023-03-29T18:27:22.600Z,10.46
2023-03-29T18:32:28.058Z,10.51
2023-03-29T18:37:32.516Z,10.62
2023-03-29T18:42:36.586Z,10.74
2023-03-29T18:47:41.414Z,10.83
2023-03-29T18:52:44.949Z,10.87
2023-03-29T18:57:48.259Z,10.89
2023-03-29T19:02:53.301Z,10.85
2023-03-29T19:07:56.746Z,10.99
2023-03-29T19:13:00.050Z,11.01
2023-03-29T19:18:04.737Z,11.10
2023-03-29T19:23:08.184Z,11.08
2023-03-29T19:28:11.737Z,11.11
2023-03-29T19:33:17.124Z,11.05
2023-03-29T19:38:20.639Z,11.18
2023-03-29T19:43:24.925Z,11.21
2023-03-29T19:48:29.531Z,11.26
2023-03-29T19:53:33.473Z,11.39
2023-03-29T19:58:37.704Z,11.41
2023-03-29T20:03:43.743Z,11.35
2023-03-29T20:08:48.231Z,11.30
2023-03-29T20:13:52.638Z,11.40
2023-03-29T20:19:02.321Z,11.28
2023-03-29T20:24:09.410Z,11.02
2023-03-29T20:29:15.393Z,11.23
2023-03-29T20:34:20.007Z,11.30
2023-03-29T20:39:25.542Z,11.31
2023-03-29T20:44:29.218Z,11.26
2023-03-29T20:49:38.354Z,11.13
2023-03-29T20:54:42.090Z,11.33
2023-03-29T20:59:46.184Z,11.26
2023-03-29T21:04:52.986Z,11.23
2023-03-29T21:09:56.390Z,11.17
2023-03-29T21:15:00.295Z,11.11
2023-03-29T21:20:07.432Z,11.16
2023-03-29T21:25:12.796Z,11.29
2023-03-29T21:30:16.426Z,11.29
2023-03-29T21:35:21.515Z,11.16
2023-03-29T21:40:24.696Z,11.20
2023-03-29T21:45:27.923Z,11.35
2023-03-29T21:50:33.969Z,11.49
2023-03-29T21:55:37.296Z,11.20
2023-03-29T22:00:40.781Z,11.34
2023-03-29T22:05:56.476Z,11.39
2023-03-29T22:11:08.227Z,11.57
2023-03-29T22:16:16.791Z,11.81
2023-03-29T22:21:23.714Z,11.96
2023-03-29T22:26:29.358Z,11.93
2023-03-29T22:31:33.962Z,12.00
2023-03-29T22:36:38.673Z,11.93
2023-03-29T22:41:42.023Z,11.98
2023-03-29T22:46:45.159Z,11.85
2023-03-29T22:51:51.753Z,11.79
2023-03-29T22:56:55.059Z,11.78
2023-03-29T23:01:58.466Z,11.77
2023-03-29T23:07:03.391Z,11.83
2023-03-29T23:12:07.239Z,11.82
2023-03-29T23:17:10.831Z,11.78
2023-03-29T23:22:16.062Z,11.79
2023-03-29T23:27:20.272Z,11.79
2023-03-29T23:32:23.419Z,11.84
2023-03-29T23:37:28.108Z,11.81
2023-03-29T23:42:31.367Z,11.93
2023-03-29T23:47:35.516Z,11.98
2023-03-29T23:52:40.648Z,12.11
2023-03-29T23:57:44.218Z,12.37
